createdAt,value
2023-10-01T00:03:51.962Z,4.28
2023-10-01T00:08:55.068Z,4.22
2023-10-01T00:13:56.731Z,4.72
2023-10-01T00:19:00.620Z,3.35
2023-10-01T00:24:02.512Z,4.03
2023-10-01T00:29:04.991Z,3.25
2023-10-01T00:34:08.458Z,3.53
2023-10-01T00:39:10.397Z,3.47
2023-10-01T00:44:13.878Z,3.03
2023-10-01T00:49:16.239Z,3.63
2023-10-01T00:54:18.090Z,3.83
2023-10-01T00:59:19.780Z,3.13
2023-10-01T01:04:24.110Z,3.33
2023-10-01T01:09:25.854Z,3.22
2023-10-01T01:14:29.126Z,2.95
2023-10-01T01:19:31.585Z,3.45
2023-10-01T01:24:33.442Z,3.40
2023-10-01T01:29:35.449Z,2.85
2023-10-01T01:34:37.320Z,4.15
2023-10-01T01:39:55.654Z,3.53
2023-10-01T01:45:16.122Z,3.58
2023-10-01T01:50:28.519Z,3.15
2023-10-01T01:55:32.856Z,3.28
2023-10-01T02:00:48.548Z,3.13
2023-10-01T02:05:50.303Z,3.05
2023-10-01T02:10:53.860Z,2.85
2023-10-01T02:15:56.320Z,3.63
2023-10-01T02:20:58.432Z,2.60
2023-10-01T02:26:02.006Z,3.13
2023-10-01T02:31:08.101Z,3.33
2023-10-01T02:36:13.825Z,3.08
2023-10-01T02:41:16.303Z,2.78
2023-10-01T02:46:26.195Z,4.05
2023-10-01T02:51:33.929Z,2.47
2023-10-01T02:56:53.719Z,2.47
2023-10-01T03:01:56.540Z,3.28
2023-10-01T03:06:58.982Z,2.60
2023-10-01T03:12:20.275Z,2.70
2023-10-01T03:17:24.696Z,2.33
2023-10-01T03:22:33.035Z,2.33
2023-10-01T03:27:40.041Z,2.70
2023-10-01T03:32:41.928Z,2.45
2023-10-01T03:37:44.824Z,2.35
2023-10-01T03:42:51.949Z,2.35
2023-10-01T03:47:59.270Z,2.13
2023-10-01T03:53:01.149Z,2.90
2023-10-01T03:58:06.021Z,2.38
2023-10-01T04:03:09.505Z,3.72
2023-10-01T04:08:15.141Z,2.03
2023-10-01T04:13:22.270Z,2.78
2023-10-01T04:18:25.494Z,2.67
2023-10-01T04:23:36.606Z,2.75
2023-10-01T04:28:45.182Z,2.75
2023-10-01T04:33:51.911Z,2.55
2023-10-01T04:39:01.376Z,2.47
2023-10-01T04:44:09.367Z,2.58
2023-10-01T04:49:37.039Z,2.10
2023-10-01T04:54:41.559Z,2.53
2023-10-01T04:59:58.716Z,1.95
2023-10-01T05:05:11.172Z,3.13
2023-10-01T05:15:19.323Z,3.50
2023-10-01T05:20:21.102Z,2.10
2023-10-01T05:25:26.204Z,2.60
2023-10-01T05:30:37.709Z,1.90
2023-10-01T05:35:45.820Z,2.28
2023-10-01T05:40:53.497Z,2.00
2023-10-01T05:46:02.633Z,2.28
2023-10-01T05:51:07.659Z,2.55
2023-10-01T05:56:20.517Z,2.42
2023-10-01T06:01:23.262Z,2.33
2023-10-01T06:06:25.807Z,2.22
2023-10-01T06:11:43.275Z,2.08
2023-10-01T06:16:45.074Z,2.58
2023-10-01T06:21:48.258Z,2.15
2023-10-01T06:26:52.100Z,2.53
2023-10-01T06:31:54.425Z,2.35
2023-10-01T06:37:03.052Z,2.42
2023-10-01T06:42:21.575Z,2.00
2023-10-01T06:47:27.214Z,1.88
2023-10-01T06:52:30.259Z,1.85
2023-10-01T06:57:34.807Z,2.55
2023-10-01T07:02:37.573Z,2.58
2023-10-01T07:07:42.527Z,1.98
2023-10-01T07:12:59.066Z,2.55
2023-10-01T07:18:14.801Z,2.00
2023-10-01T07:23:20.105Z,2.28
2023-10-01T07:28:21.862Z,2.03
2023-10-01T07:33:23.860Z,3.40
2023-10-01T07:38:27.891Z,1.63
2023-10-01T07:43:31.100Z,2.47
2023-10-01T07:48:33.281Z,2.45
2023-10-01T07:53:35.068Z,2.17
2023-10-01T07:58:52.355Z,1.48
2023-10-01T08:03:57.464Z,2.90
2023-10-01T08:09:00.615Z,2.35
2023-10-01T08:14:06.803Z,1.63
2023-10-01T08:19:12.763Z,1.95
2023-10-01T08:24:19.470Z,1.55
2023-10-01T08:29:21.151Z,1.50
2023-10-01T08:34:25.801Z,1.10
2023-10-01T08:39:35.188Z,0.85
2023-10-01T08:44:48.015Z,1.08
2023-10-01T08:49:51.133Z,1.13
2023-10-01T08:54:57.431Z,0.93
2023-10-01T09:00:01.172Z,1.90
2023-10-01T09:05:09.175Z,1.25
2023-10-01T09:10:19.193Z,2.60
2023-10-01T09:15:39.257Z,1.67
2023-10-01T09:21:01.500Z,1.30
2023-10-01T09:26:03.672Z,1.65
2023-10-01T09:31:24.318Z,1.60
2023-10-01T09:36:36.562Z,2.05
2023-10-01T09:41:44.589Z,1.63
2023-10-01T09:46:46.346Z,1.55
2023-10-01T09:51:53.895Z,1.70
2023-10-01T09:56:57.879Z,1.60
2023-10-01T10:02:04.205Z,1.77
2023-10-01T10:07:09.181Z,1.55
2023-10-01T10:12:10.893Z,1.70
2023-10-01T10:17:18.413Z,2.05
2023-10-01T10:22:20.157Z,1.85
2023-10-01T10:27:28.778Z,1.90
2023-10-01T10:32:43.521Z,1.63
2023-10-01T10:37:46.572Z,1.95
2023-10-01T10:42:48.331Z,1.75
2023-10-01T10:48:07.805Z,2.10
2023-10-01T10:53:44.511Z,1.25
2023-10-01T10:58:52.012Z,1.40
2023-10-01T11:03:58.210Z,1.88
2023-10-01T11:09:00.319Z,1.80
2023-10-01T11:14:02.273Z,1.70
2023-10-01T11:19:15.325Z,1.80
2023-10-01T11:24:18.059Z,1.85
2023-10-01T11:29:23.513Z,2.15
2023-10-01T11:34:28.049Z,1.48
2023-10-01T11:39:50.463Z,1.38
2023-10-01T11:44:53.945Z,1.60
2023-10-01T11:50:08.522Z,1.70
2023-10-01T11:55:22.939Z,1.58
2023-10-01T12:00:42.904Z,1.58
2023-10-01T12:05:47.559Z,2.90
2023-10-01T12:10:52.671Z,1.80
2023-10-01T12:15:54.609Z,2.40
2023-10-01T12:20:57.453Z,1.98
2023-10-01T12:26:19.064Z,1.80
2023-10-01T12:31:24.818Z,1.30
2023-10-01T12:36:33.450Z,1.70
2023-10-01T12:41:55.484Z,1.75
2023-10-01T12:47:02.091Z,1.45
2023-10-01T12:52:05.205Z,2.00
2023-10-01T12:57:10.764Z,1.50
2023-10-01T13:02:29.339Z,1.80
2023-10-01T13:07:37.152Z,1.45
2023-10-01T13:12:58.769Z,1.80
2023-10-01T13:18:02.630Z,1.60
2023-10-01T13:23:11.051Z,1.50
2023-10-01T13:28:20.249Z,1.90
2023-10-01T13:33:24.636Z,1.58
2023-10-01T13:38:28.470Z,2.33
2023-10-01T13:43:58.246Z,1.88
2023-10-01T13:49:18.557Z,0.98
2023-10-01T13:54:38.973Z,1.35
2023-10-01T13:59:59.328Z,1.50
2023-10-01T14:05:19.648Z,1.58
2023-10-01T14:10:21.568Z,1.40
2023-10-01T14:15:24.758Z,1.75
2023-10-01T14:20:43.715Z,1.85
2023-10-01T14:26:15.194Z,1.13
2023-10-01T14:31:36.095Z,1.60
2023-10-01T14:36:43.749Z,1.70
2023-10-01T14:41:47.207Z,1.52
2023-10-01T14:46:49.873Z,1.67
2023-10-01T14:51:55.210Z,1.90
2023-10-01T14:56:57.990Z,1.80
2023-10-01T15:02:00.099Z,1.67
2023-10-01T15:07:02.270Z,2.53
2023-10-01T15:12:07.685Z,1.40
2023-10-01T15:17:18.677Z,1.30
2023-10-01T15:22:21.133Z,1.45
2023-10-01T15:27:26.356Z,2.22
2023-10-01T15:32:31.668Z,1.45
2023-10-01T15:37:34.346Z,1.83
2023-10-01T15:42:37.537Z,1.80
2023-10-01T15:47:47.006Z,2.10
2023-10-01T15:52:51.071Z,1.52
2023-10-01T15:57:56.844Z,1.60
2023-10-01T16:03:11.222Z,1.65
2023-10-01T16:08:19.893Z,1.55
2023-10-01T16:13:29.757Z,1.73
2023-10-01T16:18:33.584Z,1.60
2023-10-01T16:23:39.468Z,1.67
2023-10-01T16:28:42.953Z,1.23
2023-10-01T16:33:47.061Z,1.48
2023-10-01T16:38:55.141Z,1.10
2023-10-01T16:44:00.338Z,1.27
2023-10-01T16:49:04.885Z,1.30
2023-10-01T16:54:22.484Z,1.13
2023-10-01T16:59:25.238Z,1.02
2023-10-01T17:04:32.512Z,1.15
2023-10-01T17:09:35.418Z,1.30
2023-10-01T17:14:39.246Z,1.15
2023-10-01T17:19:41.203Z,1.70
2023-10-01T17:24:47.798Z,4.00
2023-10-01T17:29:50.702Z,4.15
2023-10-01T17:34:53.562Z,3.50
2023-10-01T17:40:01.893Z,3.25
2023-10-01T17:45:04.270Z,3.35
2023-10-01T17:50:15.015Z,3.53
2023-10-01T17:55:27.373Z,3.72
2023-10-01T18:00:43.072Z,2.97
2023-10-01T18:06:00.191Z,3.00
2023-10-01T18:11:11.026Z,4.07
2023-10-01T18:16:27.005Z,4.07
2023-10-01T18:21:30.056Z,4.05
2023-10-01T18:26:32.212Z,3.08
2023-10-01T18:31:35.041Z,3.28
2023-10-01T18:36:36.789Z,3.25
2023-10-01T18:41:42.554Z,4.03
2023-10-01T18:46:44.383Z,3.53
2023-10-01T18:51:49.042Z,3.95
2023-10-01T18:56:52.228Z,6.22
2023-10-01T19:01:58.042Z,6.43
2023-10-01T19:07:00.315Z,5.80
2023-10-01T19:12:02.012Z,6.47
2023-10-01T19:17:03.940Z,5.38
2023-10-01T19:22:11.943Z,4.70
2023-10-01T19:27:13.850Z,5.63
2023-10-01T19:32:15.566Z,4.72
2023-10-01T19:37:17.445Z,5.13
2023-10-01T19:42:25.182Z,3.88
2023-10-01T19:47:26.988Z,3.75
2023-10-01T19:52:29.951Z,3.88
2023-10-01T19:57:41.069Z,4.57
2023-10-01T20:02:45.751Z,3.10
2023-10-01T20:07:50.664Z,3.65
2023-10-01T20:12:53.870Z,3.45
2023-10-01T20:18:08.832Z,3.55
2023-10-01T20:23:10.607Z,4.20
2023-10-01T20:28:12.300Z,3.65
2023-10-01T20:33:16.308Z,3.25
2023-10-01T20:38:33.797Z,3.08
2023-10-01T20:43:35.663Z,3.50
2023-10-01T20:48:41.579Z,4.97
2023-10-01T20:53:44.296Z,3.67
2023-10-01T20:58:46.621Z,3.22
2023-10-01T21:03:51.804Z,3.38
2023-10-01T21:08:53.522Z,2.95
2023-10-01T21:14:01.752Z,3.58
2023-10-01T21:19:04.320Z,3.72
2023-10-01T21:24:10.126Z,7.10
2023-10-01T21:29:19.829Z,3.17
2023-10-01T21:34:21.753Z,3.55
2023-10-01T21:39:24.487Z,3.17
2023-10-01T21:44:27.864Z,3.22
2023-10-01T21:49:30.950Z,3.80
2023-10-01T21:54:33.168Z,3.55
2023-10-01T21:59:39.252Z,2.70
2023-10-01T22:04:49.214Z,2.90
2023-10-01T22:09:54.836Z,3.40
2023-10-01T22:14:56.558Z,2.60
2023-10-01T22:19:58.576Z,2.38
2023-10-01T22:25:00.302Z,3.50
2023-10-01T22:30:02.562Z,2.92
2023-10-01T22:35:09.036Z,4.10
2023-10-01T22:40:13.175Z,3.58
2023-10-01T22:45:29.948Z,3.42
2023-10-01T22:50:32.122Z,3.42
2023-10-01T22:55:34.861Z,3.40
2023-10-01T23:00:38.176Z,3.42
2023-10-01T23:05:40.725Z,3.97
2023-10-01T23:10:43.133Z,3.33
2023-10-01T23:15:50.007Z,6.88
2023-10-01T23:20:54.567Z,3.38
2023-10-01T23:26:06.494Z,3.63
2023-10-01T23:31:13.169Z,5.45
2023-10-01T23:36:15.629Z,4.15
2023-10-01T23:41:29.612Z,3.70
2023-10-01T23:46:34.563Z,3.80
2023-10-01T23:51:42.840Z,3.15
2023-10-01T23:56:44.654Z,3.63
